sensor_id;sensor_type;location;lat;lon;timestamp;temperature;humidity
16140;DHT22;8175;49.326;12.690;2022-12-31T00:01:48;7.50;99.90
16140;DHT22;8175;49.326;12.690;2022-12-31T00:04:14;7.50;99.90
16140;DHT22;8175;49.326;12.690;2022-12-31T00:06:40;7.60;99.90
16140;DHT22;8175;49.326;12.690;2022-12-31T00:09:06;7.60;99.90
16140;DHT22;8175;49.326;12.690;2022-12-31T00:11:33;7.60;99.90
16140;DHT22;8175;49.326;12.690;2022-12-31T00:13:59;7.60;99.90
16140;DHT22;8175;49.326;12.690;2022-12-31T00:16:31;7.60;99.90
16140;DHT22;8175;49.326;12.690;2022-12-31T00:18:58;7.60;99.90
16140;DHT22;8175;49.326;12.690;2022-12-31T00:21:27;7.70;99.90
16140;DHT22;8175;49.326;12.690;2022-12-31T00:23:53;7.70;99.90
16140;DHT22;8175;49.326;12.690;2022-12-31T00:26:21;7.70;99.90
16140;DHT22;8175;49.326;12.690;2022-12-31T00:28:49;7.80;99.90
16140;DHT22;8175;49.326;12.690;2022-12-31T00:31:20;7.80;99.90
16140;DHT22;8175;49.326;12.690;2022-12-31T00:33:46;7.80;99.90
16140;DHT22;8175;49.326;12.690;2022-12-31T00:36:17;7.80;99.90
16140;DHT22;8175;49.326;12.690;2022-12-31T00:38:47;7.80;99.90
16140;DHT22;8175;49.326;12.690;2022-12-31T00:41:13;7.80;99.90
16140;DHT22;8175;49.326;12.690;2022-12-31T00:43:39;7.80;99.90
16140;DHT22;8175;49.326;12.690;2022-12-31T00:46:06;7.90;99.90
16140;DHT22;8175;49.326;12.690;2022-12-31T00:48:32;7.90;99.90
16140;DHT22;8175;49.326;12.690;2022-12-31T00:50:59;7.90;99.90
16140;DHT22;8175;49.326;12.690;2022-12-31T00:53:26;7.90;99.90
16140;DHT22;8175;49.326;12.690;2022-12-31T00:55:57;7.90;99.90
16140;DHT22;8175;49.326;12.690;2022-12-31T00:58:23;7.90;99.90
16140;DHT22;8175;49.326;12.690;2022-12-31T01:00:49;8.00;99.90
16140;DHT22;8175;49.326;12.690;2022-12-31T01:03:14;8.00;99.90
16140;DHT22;8175;49.326;12.690;2022-12-31T01:05:40;8.00;99.90
16140;DHT22;8175;49.326;12.690;2022-12-31T01:08:05;8.10;99.90
16140;DHT22;8175;49.326;12.690;2022-12-31T01:10:31;8.00;99.90
16140;DHT22;8175;49.326;12.690;2022-12-31T01:13:15;8.00;99.90
16140;DHT22;8175;49.326;12.690;2022-12-31T01:15:41;8.10;99.90
16140;DHT22;8175;49.326;12.690;2022-12-31T01:18:07;8.10;99.90
16140;DHT22;8175;49.326;12.690;2022-12-31T01:20:38;8.00;99.90
16140;DHT22;8175;49.326;12.690;2022-12-31T01:23:05;8.00;99.90
16140;DHT22;8175;49.326;12.690;2022-12-31T01:25:37;8.10;99.90
16140;DHT22;8175;49.326;12.690;2022-12-31T01:28:04;8.10;99.90
16140;DHT22;8175;49.326;12.690;2022-12-31T01:30:31;8.10;99.90
16140;DHT22;8175;49.326;12.690;2022-12-31T01:32:56;8.00;99.90
16140;DHT22;8175;49.326;12.690;2022-12-31T01:35:22;8.00;99.90
16140;DHT22;8175;49.326;12.690;2022-12-31T01:37:48;8.00;99.90
16140;DHT22;8175;49.326;12.690;2022-12-31T01:40:14;8.00;99.90
16140;DHT22;8175;49.326;12.690;2022-12-31T01:42:39;8.00;99.90
16140;DHT22;8175;49.326;12.690;2022-12-31T01:45:10;8.00;99.90
16140;DHT22;8175;49.326;12.690;2022-12-31T01:47:45;8.10;99.90
16140;DHT22;8175;49.326;12.690;2022-12-31T01:50:20;8.10;99.90
16140;DHT22;8175;49.326;12.690;2022-12-31T01:52:49;8.10;99.90
16140;DHT22;8175;49.326;12.690;2022-12-31T01:57:52;8.20;99.90
16140;DHT22;8175;49.326;12.690;2022-12-31T02:00:20;8.20;99.90
16140;DHT22;8175;49.326;12.690;2022-12-31T02:02:46;8.30;99.90
16140;DHT22;8175;49.326;12.690;2022-12-31T02:07:48;8.30;99.90
16140;DHT22;8175;49.326;12.690;2022-12-31T02:10:14;8.30;99.90
16140;DHT22;8175;49.326;12.690;2022-12-31T02:12:40;8.30;99.90
16140;DHT22;8175;49.326;12.690;2022-12-31T02:15:06;8.30;99.90
16140;DHT22;8175;49.326;12.690;2022-12-31T02:17:59;8.30;99.90
16140;DHT22;8175;49.326;12.690;2022-12-31T02:23:24;8.40;99.90
16140;DHT22;8175;49.326;12.690;2022-12-31T02:26:22;8.50;99.90
16140;DHT22;8175;49.326;12.690;2022-12-31T02:29:14;8.50;99.90
16140;DHT22;8175;49.326;12.690;2022-12-31T02:31:53;8.60;99.90
16140;DHT22;8175;49.326;12.690;2022-12-31T02:34:36;8.60;99.90
16140;DHT22;8175;49.326;12.690;2022-12-31T02:37:07;8.70;99.90
16140;DHT22;8175;49.326;12.690;2022-12-31T02:39:35;8.70;99.90
16140;DHT22;8175;49.326;12.690;2022-12-31T02:42:01;8.70;99.90
16140;DHT22;8175;49.326;12.690;2022-12-31T02:44:35;8.70;99.90
16140;DHT22;8175;49.326;12.690;2022-12-31T02:52:29;8.60;99.90
16140;DHT22;8175;49.326;12.690;2022-12-31T03:00:30;8.40;99.90
16140;DHT22;8175;49.326;12.690;2022-12-31T03:03:16;8.40;99.90
16140;DHT22;8175;49.326;12.690;2022-12-31T03:05:43;8.40;99.90
16140;DHT22;8175;49.326;12.690;2022-12-31T03:08:11;8.40;99.90
16140;DHT22;8175;49.326;12.690;2022-12-31T03:10:44;8.40;99.90
16140;DHT22;8175;49.326;12.690;2022-12-31T03:13:10;8.40;99.90
16140;DHT22;8175;49.326;12.690;2022-12-31T03:15:35;8.40;99.90
16140;DHT22;8175;49.326;12.690;2022-12-31T03:18:07;8.50;99.90
16140;DHT22;8175;49.326;12.690;2022-12-31T03:20:44;8.50;99.90
16140;DHT22;8175;49.326;12.690;2022-12-31T03:23:33;8.50;99.90
16140;DHT22;8175;49.326;12.690;2022-12-31T03:26:01;8.60;99.90
16140;DHT22;8175;49.326;12.690;2022-12-31T03:28:29;8.70;99.90
16140;DHT22;8175;49.326;12.690;2022-12-31T03:30:58;8.80;99.90
16140;DHT22;8175;49.326;12.690;2022-12-31T03:33:25;8.80;99.90
16140;DHT22;8175;49.326;12.690;2022-12-31T03:35:54;8.90;99.90
16140;DHT22;8175;49.326;12.690;2022-12-31T03:38:19;8.90;99.90
16140;DHT22;8175;49.326;12.690;2022-12-31T03:40:48;8.90;99.90
16140;DHT22;8175;49.326;12.690;2022-12-31T03:43:14;8.90;99.90
16140;DHT22;8175;49.326;12.690;2022-12-31T03:45:40;9.00;99.90
16140;DHT22;8175;49.326;12.690;2022-12-31T03:48:08;9.00;99.90
16140;DHT22;8175;49.326;12.690;2022-12-31T03:50:34;9.10;99.90
16140;DHT22;8175;49.326;12.690;2022-12-31T03:53:00;9.10;99.90
16140;DHT22;8175;49.326;12.690;2022-12-31T03:55:26;9.20;99.90
16140;DHT22;8175;49.326;12.690;2022-12-31T03:57:52;9.30;99.90
16140;DHT22;8175;49.326;12.690;2022-12-31T04:00:19;9.30;99.90
16140;DHT22;8175;49.326;12.690;2022-12-31T04:02:46;9.40;99.90
16140;DHT22;8175;49.326;12.690;2022-12-31T04:05:13;9.40;99.90
16140;DHT22;8175;49.326;12.690;2022-12-31T04:07:39;9.40;99.90
16140;DHT22;8175;49.326;12.690;2022-12-31T04:10:06;9.40;99.90
16140;DHT22;8175;49.326;12.690;2022-12-31T04:12:32;9.50;99.90
16140;DHT22;8175;49.326;12.690;2022-12-31T04:14:58;9.50;99.90
16140;DHT22;8175;49.326;12.690;2022-12-31T04:17:24;9.50;99.90
16140;DHT22;8175;49.326;12.690;2022-12-31T04:19:50;9.60;99.90
16140;DHT22;8175;49.326;12.690;2022-12-31T04:22:16;9.70;99.90
16140;DHT22;8175;49.326;12.690;2022-12-31T04:24:42;9.70;99.90
16140;DHT22;8175;49.326;12.690;2022-12-31T04:27:08;9.70;99.90
16140;DHT22;8175;49.326;12.690;2022-12-31T04:29:35;9.70;99.90
16140;DHT22;8175;49.326;12.690;2022-12-31T04:32:00;9.70;99.90
16140;DHT22;8175;49.326;12.690;2022-12-31T04:34:26;9.70;99.90
16140;DHT22;8175;49.326;12.690;2022-12-31T04:36:52;9.70;99.90
16140;DHT22;8175;49.326;12.690;2022-12-31T04:39:17;9.70;99.90
16140;DHT22;8175;49.326;12.690;2022-12-31T04:41:43;9.70;99.90
16140;DHT22;8175;49.326;12.690;2022-12-31T04:44:09;9.70;99.90
16140;DHT22;8175;49.326;12.690;2022-12-31T04:46:34;9.70;99.90
16140;DHT22;8175;49.326;12.690;2022-12-31T04:49:00;9.70;99.90
16140;DHT22;8175;49.326;12.690;2022-12-31T04:51:27;9.70;99.90
16140;DHT22;8175;49.326;12.690;2022-12-31T04:53:53;9.70;99.90
16140;DHT22;8175;49.326;12.690;2022-12-31T04:56:19;9.60;99.90
16140;DHT22;8175;49.326;12.690;2022-12-31T04:58:45;9.60;99.90
16140;DHT22;8175;49.326;12.690;2022-12-31T05:01:11;9.60;99.90
16140;DHT22;8175;49.326;12.690;2022-12-31T05:03:37;9.60;99.90
16140;DHT22;8175;49.326;12.690;2022-12-31T05:06:06;9.70;99.90
16140;DHT22;8175;49.326;12.690;2022-12-31T05:08:32;9.80;99.90
16140;DHT22;8175;49.326;12.690;2022-12-31T05:10:58;9.70;99.90
16140;DHT22;8175;49.326;12.690;2022-12-31T05:13:24;9.80;99.90
16140;DHT22;8175;49.326;12.690;2022-12-31T05:15:50;9.80;99.90
16140;DHT22;8175;49.326;12.690;2022-12-31T05:18:16;9.90;99.90
16140;DHT22;8175;49.326;12.690;2022-12-31T05:20:42;9.90;99.90
16140;DHT22;8175;49.326;12.690;2022-12-31T05:23:08;9.90;99.90
16140;DHT22;8175;49.326;12.690;2022-12-31T05:25:34;9.90;99.90
16140;DHT22;8175;49.326;12.690;2022-12-31T05:28:00;10.00;99.90
16140;DHT22;8175;49.326;12.690;2022-12-31T05:30:25;10.00;99.90
16140;DHT22;8175;49.326;12.690;2022-12-31T05:32:51;10.00;99.90
16140;DHT22;8175;49.326;12.690;2022-12-31T05:35:17;10.10;99.90
16140;DHT22;8175;49.326;12.690;2022-12-31T05:37:43;10.10;99.90
16140;DHT22;8175;49.326;12.690;2022-12-31T05:40:09;10.10;99.90
16140;DHT22;8175;49.326;12.690;2022-12-31T05:42:35;10.20;99.90
16140;DHT22;8175;49.326;12.690;2022-12-31T05:45:01;10.20;99.90
16140;DHT22;8175;49.326;12.690;2022-12-31T05:47:26;10.20;99.90
16140;DHT22;8175;49.326;12.690;2022-12-31T05:49:52;10.10;99.90
16140;DHT22;8175;49.326;12.690;2022-12-31T05:52:18;10.10;99.90
16140;DHT22;8175;49.326;12.690;2022-12-31T05:54:44;10.10;99.90
16140;DHT22;8175;49.326;12.690;2022-12-31T05:57:09;10.10;99.90
16140;DHT22;8175;49.326;12.690;2022-12-31T05:59:35;10.20;99.90
16140;DHT22;8175;49.326;12.690;2022-12-31T06:02:01;10.20;99.90
16140;DHT22;8175;49.326;12.690;2022-12-31T06:04:26;10.20;99.90
16140;DHT22;8175;49.326;12.690;2022-12-31T06:06:52;10.20;99.90
16140;DHT22;8175;49.326;12.690;2022-12-31T06:09:18;10.20;99.90
16140;DHT22;8175;49.326;12.690;2022-12-31T06:11:44;10.20;99.90
16140;DHT22;8175;49.326;12.690;2022-12-31T06:14:10;10.30;99.90
16140;DHT22;8175;49.326;12.690;2022-12-31T06:16:36;10.40;99.90
16140;DHT22;8175;49.326;12.690;2022-12-31T06:19:02;10.40;99.90
16140;DHT22;8175;49.326;12.690;2022-12-31T06:21:28;10.50;99.90
16140;DHT22;8175;49.326;12.690;2022-12-31T06:23:54;10.50;99.90
16140;DHT22;8175;49.326;12.690;2022-12-31T06:26:20;10.50;99.90
16140;DHT22;8175;49.326;12.690;2022-12-31T06:28:45;10.50;99.90
16140;DHT22;8175;49.326;12.690;2022-12-31T06:31:13;10.50;99.90
16140;DHT22;8175;49.326;12.690;2022-12-31T06:33:39;10.60;99.90
16140;DHT22;8175;49.326;12.690;2022-12-31T06:36:08;10.60;99.90
16140;DHT22;8175;49.326;12.690;2022-12-31T06:38:37;10.70;99.90
16140;DHT22;8175;49.326;12.690;2022-12-31T06:41:04;10.70;99.90
16140;DHT22;8175;49.326;12.690;2022-12-31T06:43:30;10.70;99.90
16140;DHT22;8175;49.326;12.690;2022-12-31T06:45:59;10.80;99.90
16140;DHT22;8175;49.326;12.690;2022-12-31T06:48:25;10.80;99.90
16140;DHT22;8175;49.326;12.690;2022-12-31T06:50:50;10.90;99.90
16140;DHT22;8175;49.326;12.690;2022-12-31T06:53:16;10.90;99.90
16140;DHT22;8175;49.326;12.690;2022-12-31T06:55:42;10.80;99.90
16140;DHT22;8175;49.326;12.690;2022-12-31T06:58:12;10.90;99.90
16140;DHT22;8175;49.326;12.690;2022-12-31T07:00:40;10.90;99.90
16140;DHT22;8175;49.326;12.690;2022-12-31T07:03:27;10.90;99.90
16140;DHT22;8175;49.326;12.690;2022-12-31T07:06:12;10.90;99.90
16140;DHT22;8175;49.326;12.690;2022-12-31T07:11:25;11.00;99.90
16140;DHT22;8175;49.326;12.690;2022-12-31T07:19:26;11.10;99.90
16140;DHT22;8175;49.326;12.690;2022-12-31T07:21:54;11.00;99.90
16140;DHT22;8175;49.326;12.690;2022-12-31T07:24:22;11.00;99.90
16140;DHT22;8175;49.326;12.690;2022-12-31T07:40:29;11.30;99.90
16140;DHT22;8175;49.326;12.690;2022-12-31T07:43:11;11.30;99.90
16140;DHT22;8175;49.326;12.690;2022-12-31T07:45:48;11.30;99.90
16140;DHT22;8175;49.326;12.690;2022-12-31T07:48:23;11.40;99.90
16140;DHT22;8175;49.326;12.690;2022-12-31T07:50:50;11.40;99.90
16140;DHT22;8175;49.326;12.690;2022-12-31T07:53:16;11.40;99.90
16140;DHT22;8175;49.326;12.690;2022-12-31T07:55:42;11.30;99.90
16140;DHT22;8175;49.326;12.690;2022-12-31T07:58:30;11.30;99.90
16140;DHT22;8175;49.326;12.690;2022-12-31T08:01:00;11.40;99.90
16140;DHT22;8175;49.326;12.690;2022-12-31T08:03:38;11.40;99.90
16140;DHT22;8175;49.326;12.690;2022-12-31T08:08:48;11.40;99.90
16140;DHT22;8175;49.326;12.690;2022-12-31T08:14:08;11.50;99.90
16140;DHT22;8175;49.326;12.690;2022-12-31T08:16:34;11.50;99.90
16140;DHT22;8175;49.326;12.690;2022-12-31T08:19:00;11.50;99.90
16140;DHT22;8175;49.326;12.690;2022-12-31T08:21:47;11.50;99.90
16140;DHT22;8175;49.326;12.690;2022-12-31T08:28:02;11.80;99.90
16140;DHT22;8175;49.326;12.690;2022-12-31T08:38:23;12.20;99.90
16140;DHT22;8175;49.326;12.690;2022-12-31T08:49:33;12.40;99.90
16140;DHT22;8175;49.326;12.690;2022-12-31T08:52:00;12.50;99.90
16140;DHT22;8175;49.326;12.690;2022-12-31T08:54:27;12.60;99.90
16140;DHT22;8175;49.326;12.690;2022-12-31T08:57:18;12.70;99.90
16140;DHT22;8175;49.326;12.690;2022-12-31T09:00:01;12.80;99.90
16140;DHT22;8175;49.326;12.690;2022-12-31T09:05:53;12.90;99.90
16140;DHT22;8175;49.326;12.690;2022-12-31T09:11:06;13.20;99.90
16140;DHT22;8175;49.326;12.690;2022-12-31T09:16:31;13.40;99.90
16140;DHT22;8175;49.326;12.690;2022-12-31T09:18:59;13.40;99.90
16140;DHT22;8175;49.326;12.690;2022-12-31T09:21:24;13.40;99.90
16140;DHT22;8175;49.326;12.690;2022-12-31T09:23:50;13.40;99.90
16140;DHT22;8175;49.326;12.690;2022-12-31T09:32:00;13.60;99.90
16140;DHT22;8175;49.326;12.690;2022-12-31T09:34:42;13.60;99.90
16140;DHT22;8175;49.326;12.690;2022-12-31T09:55:39;13.30;99.90
16140;DHT22;8175;49.326;12.690;2022-12-31T09:59:26;13.50;99.90
16140;DHT22;8175;49.326;12.690;2022-12-31T10:29:29;13.40;99.90
16140;DHT22;8175;49.326;12.690;2022-12-31T10:32:20;13.30;99.90
16140;DHT22;8175;49.326;12.690;2022-12-31T10:43:46;13.60;99.90
16140;DHT22;8175;49.326;12.690;2022-12-31T10:52:06;13.80;99.90
16140;DHT22;8175;49.326;12.690;2022-12-31T10:54:49;13.80;99.90
16140;DHT22;8175;49.326;12.690;2022-12-31T11:00:22;13.70;99.90
16140;DHT22;8175;49.326;12.690;2022-12-31T11:14:30;13.80;99.90
16140;DHT22;8175;49.326;12.690;2022-12-31T11:17:23;13.90;99.90
16140;DHT22;8175;49.326;12.690;2022-12-31T11:19:58;13.90;99.90
16140;DHT22;8175;49.326;12.690;2022-12-31T11:31:22;14.20;99.90
16140;DHT22;8175;49.326;12.690;2022-12-31T11:36:58;14.30;99.90
16140;DHT22;8175;49.326;12.690;2022-12-31T11:45:39;14.30;99.90
16140;DHT22;8175;49.326;12.690;2022-12-31T11:48:28;14.40;99.90
16140;DHT22;8175;49.326;12.690;2022-12-31T11:56:16;14.30;99.90
16140;DHT22;8175;49.326;12.690;2022-12-31T11:58:52;14.20;99.90
16140;DHT22;8175;49.326;12.690;2022-12-31T12:01:21;14.30;99.90
16140;DHT22;8175;49.326;12.690;2022-12-31T12:03:49;14.40;99.90
16140;DHT22;8175;49.326;12.690;2022-12-31T12:06:19;14.40;99.90
16140;DHT22;8175;49.326;12.690;2022-12-31T12:08:48;14.50;99.90
16140;DHT22;8175;49.326;12.690;2022-12-31T12:11:22;14.60;99.90
16140;DHT22;8175;49.326;12.690;2022-12-31T12:13:48;14.80;99.90
16140;DHT22;8175;49.326;12.690;2022-12-31T12:16:14;14.90;99.90
16140;DHT22;8175;49.326;12.690;2022-12-31T12:18:45;15.10;99.90
16140;DHT22;8175;49.326;12.690;2022-12-31T12:23:39;15.40;99.90
16140;DHT22;8175;49.326;12.690;2022-12-31T12:26:24;16.10;99.90
16140;DHT22;8175;49.326;12.690;2022-12-31T12:28:50;16.90;99.90
16140;DHT22;8175;49.326;12.690;2022-12-31T12:31:22;17.40;99.90
16140;DHT22;8175;49.326;12.690;2022-12-31T12:33:49;17.30;99.90
16140;DHT22;8175;49.326;12.690;2022-12-31T12:36:18;16.80;99.90
16140;DHT22;8175;49.326;12.690;2022-12-31T12:38:44;16.60;99.90
16140;DHT22;8175;49.326;12.690;2022-12-31T12:41:22;16.80;99.90
16140;DHT22;8175;49.326;12.690;2022-12-31T12:43:49;16.80;99.90
16140;DHT22;8175;49.326;12.690;2022-12-31T12:46:35;16.20;99.90
16140;DHT22;8175;49.326;12.690;2022-12-31T12:49:03;15.90;99.90
16140;DHT22;8175;49.326;12.690;2022-12-31T13:07:27;16.50;99.90
16140;DHT22;8175;49.326;12.690;2022-12-31T13:13:21;16.50;99.90
16140;DHT22;8175;49.326;12.690;2022-12-31T13:24:34;15.30;99.90
16140;DHT22;8175;49.326;12.690;2022-12-31T13:29:38;15.10;99.90
16140;DHT22;8175;49.326;12.690;2022-12-31T13:32:09;15.20;99.90
16140;DHT22;8175;49.326;12.690;2022-12-31T13:34:40;15.10;99.90
16140;DHT22;8175;49.326;12.690;2022-12-31T13:37:27;14.90;99.90
16140;DHT22;8175;49.326;12.690;2022-12-31T13:40:06;14.90;99.90
16140;DHT22;8175;49.326;12.690;2022-12-31T13:42:52;14.80;99.90
16140;DHT22;8175;49.326;12.690;2022-12-31T13:45:25;15.00;99.90
16140;DHT22;8175;49.326;12.690;2022-12-31T13:48:12;15.20;99.90
16140;DHT22;8175;49.326;12.690;2022-12-31T13:50:48;15.60;99.90
16140;DHT22;8175;49.326;12.690;2022-12-31T13:53:26;16.10;99.90
16140;DHT22;8175;49.326;12.690;2022-12-31T13:55:59;16.50;99.90
16140;DHT22;8175;49.326;12.690;2022-12-31T13:58:49;16.30;99.90
16140;DHT22;8175;49.326;12.690;2022-12-31T14:01:33;15.90;99.90
16140;DHT22;8175;49.326;12.690;2022-12-31T14:07:00;15.40;99.90
16140;DHT22;8175;49.326;12.690;2022-12-31T14:09:31;15.40;99.90
16140;DHT22;8175;49.326;12.690;2022-12-31T14:17:20;15.50;99.90
16140;DHT22;8175;49.326;12.690;2022-12-31T14:23:00;15.40;99.90
16140;DHT22;8175;49.326;12.690;2022-12-31T14:27:56;15.30;99.90
16140;DHT22;8175;49.326;12.690;2022-12-31T14:30:29;15.20;99.90
16140;DHT22;8175;49.326;12.690;2022-12-31T14:43:55;14.40;99.90
16140;DHT22;8175;49.326;12.690;2022-12-31T14:49:31;14.20;99.90
16140;DHT22;8175;49.326;12.690;2022-12-31T14:52:27;14.00;99.90
16140;DHT22;8175;49.326;12.690;2022-12-31T14:57:38;13.60;99.90
16140;DHT22;8175;49.326;12.690;2022-12-31T15:00:38;13.40;99.90
16140;DHT22;8175;49.326;12.690;2022-12-31T15:11:42;13.00;99.90
16140;DHT22;8175;49.326;12.690;2022-12-31T15:14:37;12.90;99.90
16140;DHT22;8175;49.326;12.690;2022-12-31T15:20:09;12.60;99.90
16140;DHT22;8175;49.326;12.690;2022-12-31T15:22:46;12.60;99.90
16140;DHT22;8175;49.326;12.690;2022-12-31T15:25:34;12.40;99.90
16140;DHT22;8175;49.326;12.690;2022-12-31T15:28:06;12.30;99.90
16140;DHT22;8175;49.326;12.690;2022-12-31T15:30:48;12.20;99.90
16140;DHT22;8175;49.326;12.690;2022-12-31T15:33:20;12.10;99.90
16140;DHT22;8175;49.326;12.690;2022-12-31T15:35:51;12.00;99.90
16140;DHT22;8175;49.326;12.690;2022-12-31T15:38:31;12.10;99.90
16140;DHT22;8175;49.326;12.690;2022-12-31T15:40:58;12.00;99.90
16140;DHT22;8175;49.326;12.690;2022-12-31T15:45:50;12.10;99.90
16140;DHT22;8175;49.326;12.690;2022-12-31T15:48:26;12.10;99.90
16140;DHT22;8175;49.326;12.690;2022-12-31T15:50:57;12.20;99.90
16140;DHT22;8175;49.326;12.690;2022-12-31T15:53:38;12.20;99.90
16140;DHT22;8175;49.326;12.690;2022-12-31T15:56:06;12.20;99.90
16140;DHT22;8175;49.326;12.690;2022-12-31T15:58:34;12.10;99.90
16140;DHT22;8175;49.326;12.690;2022-12-31T16:01:19;12.10;99.90
16140;DHT22;8175;49.326;12.690;2022-12-31T16:03:50;12.10;99.90
16140;DHT22;8175;49.326;12.690;2022-12-31T16:06:18;12.10;99.90
16140;DHT22;8175;49.326;12.690;2022-12-31T16:08:46;12.10;99.90
16140;DHT22;8175;49.326;12.690;2022-12-31T16:11:13;12.10;99.90
16140;DHT22;8175;49.326;12.690;2022-12-31T16:13:48;12.00;99.90
16140;DHT22;8175;49.326;12.690;2022-12-31T16:16:28;11.80;99.90
16140;DHT22;8175;49.326;12.690;2022-12-31T16:18:54;11.70;99.90
16140;DHT22;8175;49.326;12.690;2022-12-31T16:21:32;11.70;99.90
16140;DHT22;8175;49.326;12.690;2022-12-31T16:24:06;11.60;99.90
16140;DHT22;8175;49.326;12.690;2022-12-31T16:26:45;11.40;99.90
16140;DHT22;8175;49.326;12.690;2022-12-31T16:29:17;11.40;99.90
16140;DHT22;8175;49.326;12.690;2022-12-31T16:31:45;11.30;99.90
16140;DHT22;8175;49.326;12.690;2022-12-31T16:34:13;11.10;99.90
16140;DHT22;8175;49.326;12.690;2022-12-31T16:36:39;10.90;99.90
16140;DHT22;8175;49.326;12.690;2022-12-31T16:41:50;11.10;99.90
16140;DHT22;8175;49.326;12.690;2022-12-31T16:44:27;11.40;99.90
16140;DHT22;8175;49.326;12.690;2022-12-31T16:46:55;11.40;99.90
16140;DHT22;8175;49.326;12.690;2022-12-31T16:49:23;11.30;99.90
16140;DHT22;8175;49.326;12.690;2022-12-31T16:51:49;11.30;99.90
16140;DHT22;8175;49.326;12.690;2022-12-31T16:54:22;11.30;99.90
16140;DHT22;8175;49.326;12.690;2022-12-31T16:56:50;11.30;99.90
16140;DHT22;8175;49.326;12.690;2022-12-31T16:59:21;11.40;99.90
16140;DHT22;8175;49.326;12.690;2022-12-31T17:01:48;11.40;99.90
16140;DHT22;8175;49.326;12.690;2022-12-31T17:04:17;11.60;99.90
16140;DHT22;8175;49.326;12.690;2022-12-31T17:06:43;11.80;99.90
16140;DHT22;8175;49.326;12.690;2022-12-31T17:09:14;11.90;99.90
16140;DHT22;8175;49.326;12.690;2022-12-31T17:14:20;12.10;99.90
16140;DHT22;8175;49.326;12.690;2022-12-31T17:17:05;12.10;99.90
16140;DHT22;8175;49.326;12.690;2022-12-31T17:19:40;12.00;99.90
16140;DHT22;8175;49.326;12.690;2022-12-31T17:22:15;11.90;99.90
16140;DHT22;8175;49.326;12.690;2022-12-31T17:24:42;11.90;99.90
16140;DHT22;8175;49.326;12.690;2022-12-31T17:27:08;11.80;99.90
16140;DHT22;8175;49.326;12.690;2022-12-31T17:29:34;11.80;99.90
16140;DHT22;8175;49.326;12.690;2022-12-31T17:32:05;11.70;99.90
16140;DHT22;8175;49.326;12.690;2022-12-31T17:34:46;11.60;99.90
16140;DHT22;8175;49.326;12.690;2022-12-31T17:37:18;11.70;99.90
16140;DHT22;8175;49.326;12.690;2022-12-31T17:39:49;11.80;99.90
16140;DHT22;8175;49.326;12.690;2022-12-31T17:42:32;11.90;99.90
16140;DHT22;8175;49.326;12.690;2022-12-31T17:45:02;12.00;99.90
16140;DHT22;8175;49.326;12.690;2022-12-31T17:47:35;12.10;99.90
16140;DHT22;8175;49.326;12.690;2022-12-31T17:50:22;12.00;99.90
16140;DHT22;8175;49.326;12.690;2022-12-31T17:52:48;11.90;99.90
16140;DHT22;8175;49.326;12.690;2022-12-31T17:55:14;12.00;99.90
16140;DHT22;8175;49.326;12.690;2022-12-31T17:57:49;12.00;99.90
16140;DHT22;8175;49.326;12.690;2022-12-31T18:00:18;12.10;99.90
16140;DHT22;8175;49.326;12.690;2022-12-31T18:02:44;12.10;99.90
16140;DHT22;8175;49.326;12.690;2022-12-31T18:05:18;12.10;99.90
16140;DHT22;8175;49.326;12.690;2022-12-31T18:07:44;12.10;99.90
16140;DHT22;8175;49.326;12.690;2022-12-31T18:10:12;12.10;99.90
16140;DHT22;8175;49.326;12.690;2022-12-31T18:12:38;12.00;99.90
16140;DHT22;8175;49.326;12.690;2022-12-31T18:15:05;12.10;99.90
16140;DHT22;8175;49.326;12.690;2022-12-31T18:17:31;11.90;99.90
16140;DHT22;8175;49.326;12.690;2022-12-31T18:19:58;11.80;99.90
16140;DHT22;8175;49.326;12.690;2022-12-31T18:22:24;11.80;99.90
16140;DHT22;8175;49.326;12.690;2022-12-31T18:24:51;11.70;99.90
16140;DHT22;8175;49.326;12.690;2022-12-31T18:27:20;11.90;99.90
16140;DHT22;8175;49.326;12.690;2022-12-31T18:29:46;12.10;99.90
16140;DHT22;8175;49.326;12.690;2022-12-31T18:32:26;12.10;99.90
16140;DHT22;8175;49.326;12.690;2022-12-31T18:34:53;12.10;99.90
16140;DHT22;8175;49.326;12.690;2022-12-31T18:37:19;12.10;99.90
16140;DHT22;8175;49.326;12.690;2022-12-31T18:39:45;12.20;99.90
16140;DHT22;8175;49.326;12.690;2022-12-31T18:42:15;12.30;99.90
16140;DHT22;8175;49.326;12.690;2022-12-31T18:44:42;12.30;99.90
16140;DHT22;8175;49.326;12.690;2022-12-31T18:47:16;12.30;99.90
16140;DHT22;8175;49.326;12.690;2022-12-31T18:49:42;12.50;99.90
16140;DHT22;8175;49.326;12.690;2022-12-31T18:52:18;12.50;99.90
16140;DHT22;8175;49.326;12.690;2022-12-31T18:54:44;12.50;99.90
16140;DHT22;8175;49.326;12.690;2022-12-31T18:57:10;12.60;99.90
16140;DHT22;8175;49.326;12.690;2022-12-31T18:59:37;12.40;99.90
16140;DHT22;8175;49.326;12.690;2022-12-31T19:02:04;12.40;99.90
16140;DHT22;8175;49.326;12.690;2022-12-31T19:04:30;12.60;99.90
16140;DHT22;8175;49.326;12.690;2022-12-31T19:06:56;12.50;99.90
16140;DHT22;8175;49.326;12.690;2022-12-31T19:09:22;12.60;99.90
16140;DHT22;8175;49.326;12.690;2022-12-31T19:11:47;12.50;99.90
16140;DHT22;8175;49.326;12.690;2022-12-31T19:14:17;12.50;99.90
16140;DHT22;8175;49.326;12.690;2022-12-31T19:16:47;12.60;99.90
16140;DHT22;8175;49.326;12.690;2022-12-31T19:19:13;12.50;99.90
16140;DHT22;8175;49.326;12.690;2022-12-31T19:21:39;12.50;99.90
16140;DHT22;8175;49.326;12.690;2022-12-31T19:24:19;12.60;99.90
16140;DHT22;8175;49.326;12.690;2022-12-31T19:26:45;12.70;99.90
16140;DHT22;8175;49.326;12.690;2022-12-31T19:29:21;12.60;99.90
16140;DHT22;8175;49.326;12.690;2022-12-31T19:31:47;12.50;99.90
16140;DHT22;8175;49.326;12.690;2022-12-31T19:34:13;12.40;99.90
16140;DHT22;8175;49.326;12.690;2022-12-31T19:36:39;12.50;99.90
16140;DHT22;8175;49.326;12.690;2022-12-31T19:39:06;12.50;99.90
16140;DHT22;8175;49.326;12.690;2022-12-31T19:41:34;12.40;99.90
16140;DHT22;8175;49.326;12.690;2022-12-31T19:44:00;12.20;99.90
16140;DHT22;8175;49.326;12.690;2022-12-31T19:46:26;12.00;99.90
16140;DHT22;8175;49.326;12.690;2022-12-31T19:48:52;11.90;99.90
16140;DHT22;8175;49.326;12.690;2022-12-31T19:51:20;11.80;99.90
16140;DHT22;8175;49.326;12.690;2022-12-31T19:53:47;11.70;99.90
16140;DHT22;8175;49.326;12.690;2022-12-31T19:56:16;11.80;99.90
16140;DHT22;8175;49.326;12.690;2022-12-31T19:58:42;11.80;99.90
16140;DHT22;8175;49.326;12.690;2022-12-31T20:01:19;11.80;99.90
16140;DHT22;8175;49.326;12.690;2022-12-31T20:03:45;11.80;99.90
16140;DHT22;8175;49.326;12.690;2022-12-31T20:06:11;11.80;99.90
16140;DHT22;8175;49.326;12.690;2022-12-31T20:08:37;11.80;99.90
16140;DHT22;8175;49.326;12.690;2022-12-31T20:11:12;11.80;99.90
16140;DHT22;8175;49.326;12.690;2022-12-31T20:13:38;11.80;99.90
16140;DHT22;8175;49.326;12.690;2022-12-31T20:16:06;11.70;99.90
16140;DHT22;8175;49.326;12.690;2022-12-31T20:18:32;11.60;99.90